createdAt,value
2018-06-21T00:01:41.740Z,7.20
2018-06-21T00:04:10.469Z,6.60
2018-06-21T00:06:39.176Z,7.33
2018-06-21T00:09:08.985Z,7.27
2018-06-21T00:11:38.104Z,7.70
2018-06-21T00:14:06.773Z,6.90
2018-06-21T00:16:35.570Z,7.40
2018-06-21T00:19:03.865Z,6.80
2018-06-21T00:21:32.580Z,5.87
2018-06-21T00:24:01.318Z,6.57
2018-06-21T00:26:29.990Z,6.07
2018-06-21T00:28:58.668Z,6.87
2018-06-21T00:31:27.320Z,6.63
2018-06-21T00:33:55.966Z,6.70
2018-06-21T00:36:24.630Z,6.67
2018-06-21T00:38:53.330Z,6.13
2018-06-21T00:41:22.020Z,7.27
2018-06-21T00:43:50.704Z,7.27
2018-06-21T00:46:19.042Z,6.83
2018-06-21T00:48:47.994Z,7.07
2018-06-21T00:51:16.674Z,6.50
2018-06-21T00:53:45.352Z,6.47
2018-06-21T00:56:18.372Z,6.57
2018-06-21T00:58:47.843Z,6.83
2018-06-21T01:01:17.363Z,6.53
2018-06-21T01:03:46.429Z,6.57
2018-06-21T01:06:15.521Z,6.87
2018-06-21T01:08:44.350Z,6.87
2018-06-21T01:11:12.969Z,7.03
2018-06-21T01:13:41.660Z,7.03
2018-06-21T01:16:10.369Z,7.53
2018-06-21T01:18:39.184Z,8.67
2018-06-21T01:21:07.871Z,7.90
2018-06-21T01:23:36.164Z,7.87
2018-06-21T01:26:04.935Z,8.80
2018-06-21T01:28:33.631Z,8.27
2018-06-21T01:31:02.267Z,8.80
2018-06-21T01:33:30.958Z,8.90
2018-06-21T01:35:59.775Z,8.83
2018-06-21T01:38:28.452Z,9.17
2018-06-21T01:40:57.286Z,9.10
2018-06-21T01:43:25.960Z,9.50
2018-06-21T01:45:54.629Z,8.97
2018-06-21T01:48:23.482Z,9.00
2018-06-21T01:50:52.154Z,9.37
2018-06-21T01:53:20.460Z,9.13
2018-06-21T01:55:48.757Z,9.07
2018-06-21T01:58:17.050Z,8.50
2018-06-21T02:00:45.341Z,8.67
2018-06-21T02:03:14.108Z,9.50
2018-06-21T02:05:42.774Z,10.43
2018-06-21T02:08:11.491Z,9.73
2018-06-21T02:10:40.385Z,9.67
2018-06-21T02:13:09.065Z,9.13
2018-06-21T02:15:37.513Z,8.03
2018-06-21T02:18:06.222Z,8.90
2018-06-21T02:20:35.054Z,8.03
2018-06-21T02:23:03.905Z,8.97
2018-06-21T02:25:32.694Z,9.33
2018-06-21T02:28:01.450Z,10.73
2018-06-21T02:30:30.212Z,10.20
2018-06-21T02:32:59.077Z,10.70
2018-06-21T02:35:27.657Z,11.73
2018-06-21T02:37:56.407Z,9.43
2018-06-21T02:40:25.643Z,9.63
2018-06-21T02:42:54.502Z,9.73
2018-06-21T02:45:23.245Z,10.63
2018-06-21T02:47:51.967Z,9.13
2018-06-21T02:50:20.685Z,9.30
2018-06-21T02:52:49.375Z,8.13
2018-06-21T02:55:18.196Z,9.13
2018-06-21T02:57:46.904Z,8.37
2018-06-21T03:00:15.687Z,8.33
2018-06-21T03:02:44.421Z,8.20
2018-06-21T03:05:13.461Z,8.40
2018-06-21T03:07:42.341Z,7.80
2018-06-21T03:10:11.118Z,8.07
2018-06-21T03:12:39.962Z,8.87
2018-06-21T03:15:08.758Z,8.60
2018-06-21T03:17:37.499Z,7.87
2018-06-21T03:20:06.281Z,7.97
2018-06-21T03:22:34.896Z,8.30
2018-06-21T03:25:03.541Z,8.37
2018-06-21T03:27:32.132Z,7.93
2018-06-21T03:30:00.846Z,8.20
2018-06-21T03:32:29.915Z,8.17
2018-06-21T03:34:58.483Z,9.37
2018-06-21T03:37:26.739Z,9.33
2018-06-21T03:39:55.370Z,7.90
2018-06-21T03:42:23.703Z,7.37
2018-06-21T03:44:52.031Z,8.50
2018-06-21T03:47:20.741Z,7.70
2018-06-21T03:49:49.054Z,8.63
2018-06-21T03:52:17.866Z,8.83
2018-06-21T03:54:46.565Z,9.53
2018-06-21T03:57:15.316Z,8.27
2018-06-21T03:59:44.131Z,8.67
2018-06-21T04:02:12.431Z,9.60
2018-06-21T04:04:41.098Z,9.30
2018-06-21T04:07:09.779Z,8.33
2018-06-21T04:09:38.148Z,8.00
2018-06-21T04:12:06.444Z,7.17
2018-06-21T04:14:34.727Z,8.20
2018-06-21T04:17:03.390Z,7.33
2018-06-21T04:19:32.013Z,7.13
2018-06-21T04:22:00.318Z,7.47
2018-06-21T04:24:28.983Z,7.27
2018-06-21T04:26:57.639Z,8.70
2018-06-21T04:29:25.998Z,7.37
2018-06-21T04:31:54.293Z,8.60
2018-06-21T04:34:23.009Z,8.47
2018-06-21T04:36:51.663Z,9.70
2018-06-21T04:39:20.333Z,9.33
2018-06-21T04:41:48.968Z,8.97
2018-06-21T04:44:17.698Z,9.23
2018-06-21T04:46:46.393Z,8.53
2018-06-21T04:49:14.715Z,8.23
2018-06-21T04:51:43.135Z,8.80
2018-06-21T04:54:11.776Z,8.83
2018-06-21T04:56:40.492Z,8.50
2018-06-21T04:59:09.142Z,8.03
2018-06-21T05:01:37.968Z,8.60
2018-06-21T05:04:06.724Z,8.20
2018-06-21T05:06:35.047Z,8.20
2018-06-21T05:09:05.103Z,7.80
2018-06-21T05:11:33.785Z,7.63
2018-06-21T05:14:02.410Z,6.90
2018-06-21T05:16:31.054Z,7.50
2018-06-21T05:18:59.383Z,7.90
2018-06-21T05:21:28.080Z,9.37
2018-06-21T05:23:56.890Z,8.77
2018-06-21T05:26:25.633Z,9.40
2018-06-21T05:28:54.295Z,10.00
2018-06-21T05:31:22.608Z,10.03
2018-06-21T05:33:51.030Z,10.63
2018-06-21T05:36:19.268Z,11.37
2018-06-21T05:38:48.305Z,10.57
2018-06-21T05:41:16.960Z,11.17
2018-06-21T05:43:45.307Z,12.00
2018-06-21T05:46:13.976Z,13.53
2018-06-21T05:48:42.697Z,14.23
2018-06-21T05:51:11.398Z,13.63
2018-06-21T05:53:40.086Z,15.17
2018-06-21T05:56:08.724Z,15.93
2018-06-21T05:58:37.489Z,14.57
2018-06-21T06:01:05.951Z,15.17
2018-06-21T06:03:34.300Z,16.40
2018-06-21T06:06:03.018Z,16.23
2018-06-21T06:08:31.753Z,16.13
2018-06-21T06:11:00.102Z,12.83
2018-06-21T06:13:28.782Z,10.80
2018-06-21T06:15:57.495Z,9.60
2018-06-21T06:18:26.114Z,11.33
2018-06-21T06:20:54.434Z,11.60
2018-06-21T06:23:23.081Z,10.63
2018-06-21T06:25:52.298Z,9.67
2018-06-21T06:28:20.938Z,9.50
2018-06-21T06:30:49.611Z,5.47
2018-06-21T06:33:18.288Z,4.07
2018-06-21T06:35:46.987Z,3.27
2018-06-21T06:38:17.647Z,3.47
2018-06-21T06:40:45.912Z,3.53
2018-06-21T06:43:14.231Z,3.50
2018-06-21T06:45:42.978Z,3.80
2018-06-21T06:48:11.625Z,3.83
2018-06-21T06:50:40.285Z,3.63
2018-06-21T06:53:08.926Z,4.13
2018-06-21T06:55:37.572Z,3.60
2018-06-21T06:58:05.980Z,3.37
2018-06-21T07:00:34.605Z,2.40
2018-06-21T07:03:03.266Z,3.13
2018-06-21T07:05:31.554Z,3.17
2018-06-21T07:08:00.270Z,3.00
2018-06-21T07:10:28.966Z,4.00
2018-06-21T07:12:57.686Z,4.03
2018-06-21T07:15:26.344Z,4.20
2018-06-21T07:17:54.985Z,4.37
2018-06-21T07:20:23.683Z,3.90
2018-06-21T07:22:51.971Z,3.67
2018-06-21T07:25:20.745Z,3.93
2018-06-21T07:27:49.381Z,4.40
2018-06-21T07:30:18.022Z,4.67
2018-06-21T07:32:46.723Z,5.00
2018-06-21T07:35:15.376Z,5.23
2018-06-21T07:37:44.041Z,5.30
2018-06-21T07:40:12.730Z,5.40
2018-06-21T07:42:41.067Z,6.00
2018-06-21T07:45:09.744Z,5.40
2018-06-21T07:47:38.367Z,5.53
2018-06-21T07:50:06.957Z,5.53
2018-06-21T07:52:35.653Z,5.33
2018-06-21T07:55:04.412Z,6.77
2018-06-21T07:57:33.105Z,6.27
2018-06-21T08:00:01.455Z,6.83
2018-06-21T08:02:29.774Z,6.40
2018-06-21T08:04:58.506Z,6.70
2018-06-21T08:07:27.152Z,6.50
2018-06-21T08:10:01.612Z,7.27
2018-06-21T08:12:30.291Z,5.77
2018-06-21T08:14:58.602Z,5.93
2018-06-21T08:17:27.423Z,4.20
2018-06-21T08:19:56.129Z,3.83
2018-06-21T08:22:24.959Z,4.63
2018-06-21T08:24:53.294Z,4.30
2018-06-21T08:27:21.616Z,4.20
2018-06-21T08:29:49.985Z,3.70
2018-06-21T08:32:18.714Z,3.83
2018-06-21T08:34:47.103Z,3.90
2018-06-21T08:37:15.832Z,4.00
2018-06-21T08:39:44.593Z,4.20
2018-06-21T08:42:13.100Z,4.00
2018-06-21T08:44:41.439Z,4.70
2018-06-21T08:47:09.821Z,4.40
2018-06-21T08:49:38.306Z,5.03
2018-06-21T08:52:07.101Z,4.43
2018-06-21T08:54:35.499Z,4.43
2018-06-21T08:57:04.268Z,4.90
2018-06-21T08:59:32.746Z,4.87
2018-06-21T09:02:01.573Z,3.27
2018-06-21T09:04:29.918Z,3.20
2018-06-21T09:06:59.889Z,3.13
2018-06-21T09:09:29.444Z,3.27
2018-06-21T09:11:58.479Z,3.20
2018-06-21T09:14:27.656Z,3.00
2018-06-21T09:16:57.101Z,3.20
2018-06-21T09:19:26.319Z,3.87
2018-06-21T09:21:54.602Z,3.10
2018-06-21T09:24:24.057Z,3.30
2018-06-21T09:26:53.049Z,2.80
2018-06-21T09:29:21.963Z,2.90
2018-06-21T09:31:50.304Z,2.80
2018-06-21T09:34:19.590Z,3.03
2018-06-21T09:36:48.226Z,2.50
2018-06-21T09:39:23.908Z,2.70
2018-06-21T09:42:01.001Z,2.40
2018-06-21T09:44:32.617Z,2.43
2018-06-21T09:47:06.433Z,2.57
2018-06-21T09:49:35.538Z,2.50
2018-06-21T09:52:06.795Z,2.23
2018-06-21T09:54:35.444Z,2.27
2018-06-21T09:57:04.307Z,2.97
2018-06-21T09:59:33.662Z,2.37
2018-06-21T10:02:03.597Z,2.23
2018-06-21T10:04:32.508Z,2.80
2018-06-21T10:07:01.430Z,2.47
2018-06-21T10:09:30.115Z,2.83
2018-06-21T10:11:58.829Z,2.80
2018-06-21T10:14:27.163Z,2.33
2018-06-21T10:16:55.902Z,2.50
2018-06-21T10:19:27.770Z,2.70
2018-06-21T10:21:56.532Z,2.90
2018-06-21T10:24:24.888Z,3.00
2018-06-21T10:26:53.310Z,2.50
2018-06-21T10:29:22.777Z,1.80
2018-06-21T10:31:51.597Z,2.47
2018-06-21T10:34:20.369Z,1.93
2018-06-21T10:36:49.036Z,1.80
2018-06-21T10:39:17.676Z,2.30
2018-06-21T10:41:46.329Z,2.20
2018-06-21T10:44:15.115Z,1.70
2018-06-21T10:46:44.405Z,2.10
2018-06-21T10:49:16.460Z,2.40
2018-06-21T10:51:46.159Z,2.70
2018-06-21T10:54:14.793Z,2.40
2018-06-21T10:56:43.975Z,2.50
2018-06-21T10:59:13.487Z,3.10
2018-06-21T11:01:42.761Z,2.37
2018-06-21T11:04:12.322Z,2.33
2018-06-21T11:06:40.997Z,2.10
2018-06-21T11:09:09.977Z,2.30
2018-06-21T11:11:38.414Z,2.03
2018-06-21T11:14:07.095Z,1.70
2018-06-21T11:16:35.836Z,1.70
2018-06-21T11:19:04.717Z,1.83
2018-06-21T11:21:33.634Z,1.90
2018-06-21T11:24:03.148Z,2.23
2018-06-21T11:26:31.933Z,1.90
2018-06-21T11:29:00.308Z,2.00
2018-06-21T11:31:28.967Z,1.60
2018-06-21T11:33:57.753Z,1.63
2018-06-21T11:36:26.438Z,1.67
2018-06-21T11:38:55.103Z,1.27
2018-06-21T11:41:23.393Z,1.63
2018-06-21T11:43:51.876Z,1.20
2018-06-21T11:46:20.328Z,1.43
2018-06-21T11:48:48.645Z,1.17
2018-06-21T11:51:16.991Z,1.80
2018-06-21T11:53:45.401Z,1.10
2018-06-21T11:56:14.111Z,1.20
2018-06-21T11:58:42.608Z,1.50
2018-06-21T12:01:11.404Z,1.27
2018-06-21T12:03:39.731Z,1.30
2018-06-21T12:06:08.482Z,1.73
2018-06-21T12:08:37.531Z,1.50
2018-06-21T12:11:06.541Z,1.20
2018-06-21T12:13:36.011Z,1.50
2018-06-21T12:16:04.827Z,1.60
2018-06-21T12:18:33.653Z,1.40
2018-06-21T12:21:02.405Z,1.30
2018-06-21T12:23:30.881Z,1.50
2018-06-21T12:25:59.660Z,1.37
2018-06-21T12:28:29.370Z,1.33
2018-06-21T12:30:58.027Z,1.57
2018-06-21T12:33:26.398Z,1.10
2018-06-21T12:35:54.812Z,1.40
2018-06-21T12:38:23.124Z,1.37
2018-06-21T12:40:51.454Z,1.10
2018-06-21T12:43:20.048Z,1.37
2018-06-21T12:45:48.598Z,1.10
2018-06-21T12:48:16.956Z,1.00
2018-06-21T12:50:45.289Z,1.10
2018-06-21T12:53:14.021Z,1.37
2018-06-21T12:55:42.363Z,1.00
2018-06-21T12:58:10.711Z,1.47
2018-06-21T13:00:39.423Z,1.47
2018-06-21T13:03:08.121Z,1.60
2018-06-21T13:05:37.126Z,1.30
2018-06-21T13:08:06.379Z,1.37
2018-06-21T13:10:46.220Z,1.30
2018-06-21T13:13:16.565Z,1.30
2018-06-21T13:15:45.704Z,1.40
2018-06-21T13:18:14.492Z,1.23
2018-06-21T13:20:43.331Z,1.10
2018-06-21T13:23:12.297Z,1.33
2018-06-21T13:25:40.623Z,1.23
2018-06-21T13:28:10.539Z,1.50
2018-06-21T13:30:40.295Z,1.57
2018-06-21T13:33:08.613Z,1.47
2018-06-21T13:35:37.353Z,1.37
2018-06-21T13:38:06.097Z,1.33
2018-06-21T13:40:35.454Z,2.17
2018-06-21T13:43:04.210Z,1.50
2018-06-21T13:45:33.001Z,1.10
2018-06-21T13:48:01.656Z,1.60
2018-06-21T13:50:29.937Z,1.33
2018-06-21T13:52:58.676Z,1.30
2018-06-21T13:55:27.467Z,1.57
2018-06-21T13:57:56.288Z,1.47
2018-06-21T14:00:25.277Z,1.57
2018-06-21T14:02:53.825Z,1.17
2018-06-21T14:05:22.177Z,1.87
2018-06-21T14:07:50.980Z,1.33
2018-06-21T14:10:19.270Z,1.50
2018-06-21T14:12:47.794Z,1.40
2018-06-21T14:15:16.121Z,1.37
2018-06-21T14:17:44.872Z,1.30
2018-06-21T14:20:13.522Z,1.17
2018-06-21T14:22:42.087Z,1.30
2018-06-21T14:25:10.408Z,0.97
2018-06-21T14:27:38.781Z,1.47
2018-06-21T14:30:07.104Z,1.40
2018-06-21T14:32:35.496Z,1.27
2018-06-21T14:35:04.182Z,1.13
2018-06-21T14:37:32.878Z,1.17
2018-06-21T14:40:01.258Z,1.47
2018-06-21T14:42:29.712Z,1.67
2018-06-21T14:44:59.197Z,1.63
2018-06-21T14:47:27.997Z,1.10
2018-06-21T14:49:56.308Z,1.37
2018-06-21T14:52:24.664Z,1.20
2018-06-21T14:54:53.500Z,1.10
2018-06-21T14:57:22.369Z,0.90
2018-06-21T14:59:51.014Z,0.80
2018-06-21T15:02:22.643Z,0.90
2018-06-21T15:04:51.306Z,1.10
2018-06-21T15:07:21.877Z,1.10
2018-06-21T15:09:51.848Z,1.00
2018-06-21T15:12:22.559Z,1.27
2018-06-21T15:14:52.785Z,0.80
2018-06-21T15:17:26.716Z,0.87
2018-06-21T15:19:55.173Z,0.77
2018-06-21T15:22:23.943Z,0.70
2018-06-21T15:24:52.331Z,0.80
2018-06-21T15:27:20.820Z,0.70
2018-06-21T15:30:02.104Z,0.90
2018-06-21T15:32:31.242Z,0.70
2018-06-21T15:35:00.630Z,1.00
2018-06-21T15:37:29.394Z,0.93
2018-06-21T15:39:58.720Z,0.60
2018-06-21T15:42:27.549Z,0.90
2018-06-21T15:44:56.250Z,0.67
2018-06-21T15:47:25.137Z,0.60
2018-06-21T15:49:53.498Z,1.07
2018-06-21T15:52:22.158Z,0.73
2018-06-21T15:54:50.807Z,0.50
2018-06-21T15:57:19.278Z,0.70
2018-06-21T15:59:47.655Z,0.97
2018-06-21T16:02:16.006Z,0.73
2018-06-21T16:04:44.800Z,0.77
2018-06-21T16:07:13.122Z,0.60
2018-06-21T16:09:41.514Z,0.40
2018-06-21T16:12:10.040Z,0.73
2018-06-21T16:14:38.826Z,0.80
2018-06-21T16:17:07.515Z,0.70
2018-06-21T16:19:36.193Z,0.70
2018-06-21T16:22:04.624Z,1.00
2018-06-21T16:24:33.299Z,0.47
2018-06-21T16:27:02.060Z,0.47
2018-06-21T16:29:31.336Z,0.40
2018-06-21T16:31:59.999Z,0.80
2018-06-21T16:34:28.391Z,0.63
2018-06-21T16:36:57.045Z,0.60
2018-06-21T16:42:08.387Z,0.80
2018-06-21T16:44:37.091Z,0.70
2018-06-21T16:47:05.511Z,0.80
2018-06-21T16:49:34.457Z,0.57
2018-06-21T16:52:03.273Z,0.87
2018-06-21T16:54:39.111Z,0.70
2018-06-21T16:57:07.851Z,0.80
2018-06-21T16:59:36.526Z,0.87
2018-06-21T17:02:05.184Z,0.70
2018-06-21T17:04:33.505Z,0.83
2018-06-21T17:07:04.473Z,0.80
2018-06-21T17:09:33.513Z,1.00
2018-06-21T17:12:02.185Z,1.10
2018-06-21T17:14:30.928Z,0.80
2018-06-21T17:16:59.301Z,1.07
2018-06-21T17:19:27.615Z,1.00
2018-06-21T17:21:56.380Z,0.50
2018-06-21T17:24:25.057Z,0.97
2018-06-21T17:26:53.729Z,0.80
2018-06-21T17:29:26.727Z,0.97
2018-06-21T17:31:57.185Z,0.67
2018-06-21T17:34:26.896Z,0.90
2018-06-21T17:36:55.677Z,1.00
2018-06-21T17:39:24.420Z,1.07
2018-06-21T17:41:52.850Z,1.03
2018-06-21T17:44:21.578Z,0.80
2018-06-21T17:46:50.617Z,0.57
2018-06-21T17:49:18.963Z,1.27
2018-06-21T17:51:47.704Z,0.90
2018-06-21T17:54:16.484Z,0.80
2018-06-21T17:56:44.850Z,0.90
2018-06-21T17:59:13.315Z,1.20
2018-06-21T18:01:46.298Z,0.80
2018-06-21T18:04:16.209Z,0.83
2018-06-21T18:06:44.712Z,1.17
2018-06-21T18:09:16.829Z,1.30
2018-06-21T18:11:45.288Z,0.90
2018-06-21T18:14:13.978Z,0.90
2018-06-21T18:16:42.631Z,0.70
2018-06-21T18:19:13.138Z,1.10
2018-06-21T18:21:41.839Z,1.00
2018-06-21T18:24:10.306Z,1.20
2018-06-21T18:26:40.010Z,0.93
2018-06-21T18:29:08.442Z,0.80
2018-06-21T18:31:40.610Z,0.70
2018-06-21T18:34:11.643Z,1.20
2018-06-21T18:36:42.536Z,0.90
2018-06-21T18:39:12.297Z,1.67
2018-06-21T18:41:42.880Z,1.00
2018-06-21T18:44:11.511Z,1.27
2018-06-21T18:46:41.448Z,1.13
2018-06-21T18:49:09.889Z,0.97
2018-06-21T18:51:38.766Z,0.90
2018-06-21T18:54:07.792Z,1.03
2018-06-21T18:56:36.634Z,1.33
2018-06-21T18:59:04.952Z,1.10
2018-06-21T19:01:33.310Z,1.27
2018-06-21T19:04:02.042Z,1.07
2018-06-21T19:06:35.911Z,1.43
2018-06-21T19:09:12.309Z,1.17
2018-06-21T19:11:50.337Z,1.13
2018-06-21T19:14:20.504Z,1.77
2018-06-21T19:16:49.532Z,1.33
2018-06-21T19:19:18.958Z,1.40
2018-06-21T19:21:52.903Z,1.20
2018-06-21T19:24:23.239Z,0.93
2018-06-21T19:26:54.521Z,1.60
2018-06-21T19:29:23.175Z,0.97
2018-06-21T19:31:53.162Z,1.00
2018-06-21T19:34:21.584Z,1.30
2018-06-21T19:36:50.013Z,1.10
2018-06-21T19:39:26.223Z,1.07
2018-06-21T19:42:07.884Z,0.80
2018-06-21T19:44:41.052Z,1.00
2018-06-21T19:47:09.833Z,0.97
2018-06-21T19:49:40.087Z,0.90
2018-06-21T19:52:09.756Z,1.20
2018-06-21T19:54:43.484Z,1.20
2018-06-21T19:57:11.802Z,1.37
2018-06-21T19:59:40.104Z,1.13
2018-06-21T20:02:08.392Z,1.23
2018-06-21T20:04:36.699Z,1.80
2018-06-21T20:07:05.001Z,1.10
2018-06-21T20:09:33.769Z,1.80
2018-06-21T20:12:03.052Z,1.60
2018-06-21T20:14:38.065Z,1.60
2018-06-21T20:17:07.004Z,1.57
2018-06-21T20:19:43.013Z,1.40
2018-06-21T20:22:16.082Z,1.20
2018-06-21T20:24:44.503Z,1.40
2018-06-21T20:27:12.849Z,1.30
2018-06-21T20:29:54.176Z,1.93
2018-06-21T20:32:23.381Z,1.10
2018-06-21T20:34:51.962Z,1.60
2018-06-21T20:37:20.292Z,1.17
2018-06-21T20:39:48.613Z,1.60
2018-06-21T20:42:18.488Z,1.40
2018-06-21T20:44:46.857Z,1.43
2018-06-21T20:47:15.158Z,1.40
2018-06-21T20:49:43.548Z,1.73
2018-06-21T20:52:17.333Z,1.70
2018-06-21T20:54:45.685Z,1.47
2018-06-21T20:57:14.320Z,1.57
2018-06-21T20:59:43.505Z,1.77
2018-06-21T21:02:12.821Z,1.73
2018-06-21T21:05:18.354Z,1.40
2018-06-21T21:07:50.419Z,1.50
2018-06-21T21:10:19.340Z,1.70
2018-06-21T21:12:47.742Z,1.83
2018-06-21T21:15:17.021Z,1.70
2018-06-21T21:17:45.492Z,2.03
2018-06-21T21:20:13.941Z,2.30
2018-06-21T21:22:42.814Z,1.40
2018-06-21T21:25:11.537Z,1.80
2018-06-21T21:27:40.057Z,1.67
2018-06-21T21:30:08.916Z,2.53
2018-06-21T21:32:37.331Z,1.77
2018-06-21T21:35:05.791Z,1.60
2018-06-21T21:37:35.603Z,1.90
2018-06-21T21:40:06.380Z,2.20
2018-06-21T21:42:35.985Z,1.90
2018-06-21T21:45:04.449Z,2.10
2018-06-21T21:47:33.173Z,2.37
2018-06-21T21:50:01.989Z,2.40
2018-06-21T21:52:30.755Z,1.83
2018-06-21T21:54:59.597Z,1.93
2018-06-21T21:57:28.177Z,2.17
2018-06-21T21:59:56.934Z,2.00
2018-06-21T22:02:25.381Z,2.20
2018-06-21T22:04:53.705Z,1.83
2018-06-21T22:07:22.772Z,1.97
2018-06-21T22:09:51.176Z,2.20
2018-06-21T22:12:20.883Z,2.00
2018-06-21T22:14:52.319Z,2.50
2018-06-21T22:17:20.588Z,2.20
2018-06-21T22:19:48.920Z,2.13
2018-06-21T22:22:17.564Z,2.07
2018-06-21T22:24:45.897Z,2.20
2018-06-21T22:27:14.208Z,2.87
2018-06-21T22:29:44.483Z,2.10
2018-06-21T22:32:15.831Z,2.40
2018-06-21T22:34:46.581Z,2.23
2018-06-21T22:37:15.580Z,2.17
2018-06-21T22:39:44.830Z,2.43
2018-06-21T22:42:13.986Z,2.50
2018-06-21T22:44:42.760Z,2.93
2018-06-21T22:47:11.405Z,2.87
2018-06-21T22:49:41.272Z,2.50
2018-06-21T22:52:09.602Z,2.20
2018-06-21T22:54:39.855Z,2.43
2018-06-21T22:57:08.985Z,2.30
2018-06-21T22:59:37.692Z,2.30
2018-06-21T23:02:06.386Z,2.10
2018-06-21T23:04:35.319Z,2.20
2018-06-21T23:07:03.764Z,2.37
2018-06-21T23:09:39.990Z,2.27
2018-06-21T23:12:09.750Z,2.30
2018-06-21T23:14:38.126Z,2.07
2018-06-21T23:17:08.121Z,2.53
2018-06-21T23:19:36.527Z,2.60
2018-06-21T23:22:04.866Z,2.60
2018-06-21T23:24:33.574Z,2.60
2018-06-21T23:27:01.993Z,2.40
2018-06-21T23:29:31.052Z,2.00
2018-06-21T23:32:01.710Z,2.53
2018-06-21T23:34:30.503Z,2.87
2018-06-21T23:36:58.915Z,2.33
2018-06-21T23:39:27.338Z,2.60
2018-06-21T23:41:56.327Z,2.23
2018-06-21T23:44:25.757Z,2.67
2018-06-21T23:46:54.703Z,2.73
2018-06-21T23:49:23.090Z,2.60
2018-06-21T23:51:51.927Z,2.17
2018-06-21T23:54:21.658Z,1.90
2018-06-21T23:56:50.337Z,1.80
2018-06-21T23:59:18.731Z,2.07
